KGDV

Dawson Community Airport

Glendive, Montana, USA
KGDV 252325Z 2600/2624 32020G30KT P6SM VCSH SCT070 BKN130 FM260300 35016KT P6SM BKN070 FM260800 32009KT P6SM FEW080 FM261400 29006KT P6SM SKC FM261900 29012KT P6SM SKC
Issued Valid From Valid To
Apr-25 @ 23:25 UTC
(4 hours ago)
Apr-26 @ 00:00 UTC
(4 hours ago)
Apr-27 @ 00:00 UTC
(in 20 hours)
Expired Click to View Apr-26 @ 00:00 to Apr-26 @ 03:00
KGDV 252325Z 2600/2624 32020G30KT P6SM VCSH SCT070 BKN130
Wind Visibility Clouds
320° at 20 knots
 Gusting to 30 knots
Greater than 6 miles
  • Scattered at 7,000' AGL
  • Broken at 13,000' AGL
From Apr-26 @ 03:00 to Apr-26 @ 08:00
FM260300 35016KT P6SM BKN070
Wind Visibility Clouds
350° at 16 knots Greater than 6 miles
  • Broken at 7,000' AGL
From Apr-26 @ 08:00 to Apr-26 @ 14:00
FM260800 32009KT P6SM FEW080
Wind Visibility Clouds
320° at 9 knots Greater than 6 miles
  • Few at 8,000' AGL
From Apr-26 @ 14:00 to Apr-26 @ 19:00
FM261400 29006KT P6SM SKC
Wind Visibility Clouds
290° at 6 knots Greater than 6 miles
  • Clear skies
From Apr-26 @ 19:00 to Apr-27 @ 00:00
FM261900 29012KT P6SM SKC
Wind Visibility Clouds
290° at 12 knots Greater than 6 miles
  • Clear skies
KGDV 252325Z 2600/2624 32020G30KT P6SM VCSH SCT070 BKN130 FM260300 35016KT P6SM BKN070 FM260800 32009KT P6SM FEW080 FM261400 29006KT P6SM SKC FM261900 29012KT P6SM SKC
Issued Apr-25 @ 23:25 UTC
(4 hours ago)
Valid From Apr-26 @ 00:00 UTC
(4 hours ago)
Valid To Apr-27 @ 00:00 UTC
(in 20 hours)
Apr-26 @ 00:00 - Apr-26 @ 03:00
Wind Visibility
320° at 20 knots
 Gusting to 30 knots
Greater than 6 miles
Clouds
  • Scattered at 7,000' AGL
  • Broken at 13,000' AGL
From Apr-26 @ 03:00 - Apr-26 @ 08:00
Wind Visibility
350° at 16 knots Greater than 6 miles
Clouds
  • Broken at 7,000' AGL
From Apr-26 @ 08:00 - Apr-26 @ 14:00
Wind Visibility
320° at 9 knots Greater than 6 miles
Clouds
  • Few at 8,000' AGL
From Apr-26 @ 14:00 - Apr-26 @ 19:00
Wind Visibility
290° at 6 knots Greater than 6 miles
Clouds
  • Clear skies
From Apr-26 @ 19:00 - Apr-27 @ 00:00
Wind Visibility
290° at 12 knots Greater than 6 miles
Clouds
  • Clear skies